Aquarius Leader — 7JWK — position and weather

sailwx.info

Track history (hours):
 
Tides and Currents Weather Stations Pressure Air Temp Water Temp Dewpoint Dewpoint Depression Visibility Wind Speed Wind Dir Waves Ship Positions

Aquarius Leader

Last reported at 2018-Jan-23 02:55 UTC. Time now 2018-Jan-23 06:05 UTC.
Position N 41°09' E 002°06'.

Length 200 m; draft 8.7 m.

Type: Cargo ship. MMSI: 431305000.

Date/timePositionNaut miles runAvg speedWind from/ knotsBaromVisibWave heightAir tempDewpointWater temp
2018-Jan-23 02:55N 41°09' E 002°06'410.6
2018-Jan-23 02:30N 41°13' E 002°09'510.7
2018-Jan-23 02:01N 41°18' E 002°10'2 0.1
2018-Jan-22 06:54N 41°20' E 002°09'2 5.0
2018-Jan-22 06:30N 41°19' E 002°10'  
2018-Jan-19 05:50N 35°53' E 024°02'5115.6
2018-Jan-19 02:35N 35°40' E 025°02'213.6
2018-Jan-19 02:27N 35°39' E 025°04'713.3
2018-Jan-19 01:55N 35°37' E 025°13'1013.7
2018-Jan-19 01:13N 35°35' E 025°24'  
Track history (hours):
 
Tides and Currents Weather Stations Pressure Air Temp Water Temp Dewpoint Dewpoint Depression Visibility Wind Speed Wind Dir Waves Ship Positions

Aquarius Leader

Last reported at 2018-Jan-23 02:55 UTC. Time now 2018-Jan-23 06:05 UTC.
Position N 41°09' E 002°06'.

Length 200 m; draft 8.7 m.

Type: Cargo ship. MMSI: 431305000.

Date/timePositionNaut miles runAvg speedWind from/ knotsBaromVisibWave heightAir tempDewpointWater temp
2018-Jan-23 02:55N 41°09' E 002°06'410.6
2018-Jan-23 02:30N 41°13' E 002°09'510.7
2018-Jan-23 02:01N 41°18' E 002°10'2 0.1
2018-Jan-22 06:54N 41°20' E 002°09'2 5.0
2018-Jan-22 06:30N 41°19' E 002°10'  
2018-Jan-19 05:50N 35°53' E 024°02'5115.6
2018-Jan-19 02:35N 35°40' E 025°02'213.6
2018-Jan-19 02:27N 35°39' E 025°04'713.3
2018-Jan-19 01:55N 35°37' E 025°13'1013.7
2018-Jan-19 01:13N 35°35' E 025°24'  

Dump ship's entire track history